Time;durP1;ratioP1;P1;durP2;ratioP2;P2;SDS_P1;SDS_P2;PMS_P1;PMS_P2;Temp;Humidity;BMP_temperature;BMP_pressure;BME280_temperature;BME280_humidity;BME280_pressure;Samples;Min_cycle;Max_cycle;Signal;HPM_P1;HPM_P2
2023/07/17 00:00:03;;;;;;;;;;;;;;;17.50;73.31;101282.93;108548;1262;67260;-85
2023/07/17 00:02:32;;;;;;;;;;;;;;;17.48;73.44;101283.98;108292;1262;125573;-84
2023/07/17 00:04:59;;;;;;;;;;;;;;;17.45;73.42;101280.06;108493;1265;59441;-85
2023/07/17 00:07:25;;;;;;;;;;;;;;;17.41;73.51;101280.58;108499;1262;59568;-84
2023/07/17 00:09:52;;;;;;;;;;;;;;;17.37;73.66;101289.08;108287;1263;125403;-85
2023/07/17 00:12:19;;;;;;;;;;;;;;;17.33;73.67;101289.39;108541;1264;66789;-85
2023/07/17 00:14:46;;;;;;;;;;;;;;;17.27;73.65;101289.54;108299;1263;126180;-85
2023/07/17 00:17:14;;;;;;;;;;;;;;;17.23;73.90;101290.23;108430;1263;59689;-85
2023/07/17 00:19:41;;;;;;;;;;;;;;;17.20;73.98;101288.27;108291;1262;125308;-85
2023/07/17 00:22:08;;;;;;;;;;;;;;;17.17;74.10;101290.18;108374;1267;74669;-84
2023/07/17 00:24:35;;;;;;;;;;;;;;;17.14;74.15;101297.44;108545;1262;66509;-84
2023/07/17 00:27:02;;;;;;;;;;;;;;;17.15;74.39;101305.59;108400;1261;124365;-84
2023/07/17 00:29:29;;;;;;;;;;;;;;;17.17;74.50;101306.15;108524;1262;59609;-84
2023/07/17 00:31:56;;;;;;;;;;;;;;;17.20;74.53;101301.91;108316;1262;124582;-84
2023/07/17 00:34:23;;;;;;;;;;;;;;;17.23;74.69;101294.30;108375;1264;74782;-84
2023/07/17 00:36:50;;;;;;;;;;;;;;;17.25;74.71;101288.13;108445;1262;67510;-84
2023/07/17 00:39:18;;;;;;;;;;;;;;;17.24;74.70;101279.23;108319;1262;124436;-84
2023/07/17 00:41:46;;;;;;;;;;;;;;;17.22;74.69;101279.58;108404;1263;59094;-84
2023/07/17 00:44:13;;;;;;;;;;;;;;;17.19;74.71;101282.77;108337;1262;125097;-84
2023/07/17 00:46:40;;;;;;;;;;;;;;;17.15;74.87;101288.59;108522;1262;74939;-84
2023/07/17 00:49:07;;;;;;;;;;;;;;;17.13;74.87;101291.76;108396;1262;66003;-84
2023/07/17 00:51:35;;;;;;;;;;;;;;;17.12;75.07;101290.33;108426;1262;124790;-85
2023/07/17 00:54:02;;;;;;;;;;;;;;;17.10;75.17;101291.04;108435;1264;59238;-85
2023/07/17 00:56:28;;;;;;;;;;;;;;;17.09;75.24;101282.15;108253;1265;124236;-84
2023/07/17 00:58:56;;;;;;;;;;;;;;;17.07;75.31;101279.67;108280;1265;73286;-85
2023/07/17 01:01:23;;;;;;;;;;;;;;;17.04;75.35;101282.64;108337;1264;65776;-84
2023/07/17 01:03:52;;;;;;;;;;;;;;;17.01;75.41;101285.11;108281;1262;125230;-84
2023/07/17 01:06:19;;;;;;;;;;;;;;;16.98;75.60;101281.38;108298;1264;59602;-84
2023/07/17 01:08:46;;;;;;;;;;;;;;;16.99;75.78;101278.00;108308;1264;125941;-84
2023/07/17 01:11:13;;;;;;;;;;;;;;;17.01;75.86;101272.70;108389;1262;74703;-84
2023/07/17 01:13:46;;;;;;;;;;;;;;;17.03;75.97;101273.96;108295;1262;125453;-84
2023/07/17 01:16:13;;;;;;;;;;;;;;;17.04;75.93;101273.27;108414;1264;73269;-84
2023/07/17 01:18:40;;;;;;;;;;;;;;;17.05;76.02;101270.60;108562;1262;59638;-85
2023/07/17 01:21:08;;;;;;;;;;;;;;;17.05;76.03;101272.90;108329;1269;125487;-85
2023/07/17 01:23:35;;;;;;;;;;;;;;;17.04;76.23;101270.42;108387;1268;74666;-85
2023/07/17 01:26:15;;;;;;;;;;;;;;;17.04;76.22;101273.97;108291;1262;125562;-85
2023/07/17 01:28:42;;;;;;;;;;;;;;;17.05;76.31;101278.77;108509;1262;72881;-85
2023/07/17 01:31:09;;;;;;;;;;;;;;;17.06;76.42;101277.70;108313;1261;59429;-85
2023/07/17 01:33:36;;;;;;;;;;;;;;;17.07;76.47;101296.52;108317;1262;125926;-85
2023/07/17 01:36:04;;;;;;;;;;;;;;;17.10;76.45;101301.14;108415;1262;73834;-85
2023/07/17 01:38:31;;;;;;;;;;;;;;;17.15;76.59;101292.12;108355;1262;125635;-85
2023/07/17 01:40:58;;;;;;;;;;;;;;;17.24;76.80;101282.24;108461;1262;72600;-84
2023/07/17 01:43:25;;;;;;;;;;;;;;;17.29;76.74;101275.36;108549;1262;59176;-85
2023/07/17 01:45:52;;;;;;;;;;;;;;;17.35;76.75;101282.14;108403;1262;125005;-85
2023/07/17 01:48:18;;;;;;;;;;;;;;;17.41;76.83;101279.88;108573;1262;73402;-84
2023/07/17 01:50:46;;;;;;;;;;;;;;;17.46;76.77;101268.36;108493;1262;125877;-85
2023/07/17 01:53:17;;;;;;;;;;;;;;;17.48;76.67;101268.55;108557;1262;72711;-85
2023/07/17 01:55:44;;;;;;;;;;;;;;;17.47;76.64;101278.65;108394;1265;125243;-84
2023/07/17 01:58:11;;;;;;;;;;;;;;;17.46;76.52;101279.18;108367;1262;59361;-85
2023/07/17 02:00:38;;;;;;;;;;;;;;;17.46;76.54;101283.08;108407;1262;74804;-85
2023/07/17 02:03:05;;;;;;;;;;;;;;;17.48;76.53;101275.28;108201;1261;124958;-85
2023/07/17 02:05:32;;;;;;;;;;;;;;;17.53;76.61;101269.11;108477;1264;72703;-84
2023/07/17 02:07:59;;;;;;;;;;;;;;;17.58;76.70;101259.19;108377;1262;125283;-85
2023/07/17 02:10:26;;;;;;;;;;;;;;;17.61;76.57;101253.88;108561;1262;60149;-85
2023/07/17 02:12:53;;;;;;;;;;;;;;;17.59;76.37;101253.15;108557;1262;73144;-85
2023/07/17 02:15:20;;;;;;;;;;;;;;;17.57;76.35;101247.29;108408;1262;125495;-85
2023/07/17 02:17:47;;;;;;;;;;;;;;;17.56;76.29;101244.27;108464;1262;72884;-85
2023/07/17 02:20:14;;;;;;;;;;;;;;;17.53;76.32;101250.11;108342;1267;125579;-84
2023/07/17 02:22:41;;;;;;;;;;;;;;;17.49;76.32;101257.19;108495;1262;60184;-85
2023/07/17 02:25:08;;;;;;;;;;;;;;;17.47;76.40;101252.93;108483;1262;73536;-85
2023/07/17 02:27:35;;;;;;;;;;;;;;;17.45;76.38;101239.25;108414;1261;125231;-85
2023/07/17 02:30:03;;;;;;;;;;;;;;;17.42;76.42;101240.84;108303;1262;73257;-85
2023/07/17 02:32:30;;;;;;;;;;;;;;;17.40;76.35;101244.55;108260;1262;124927;-84
2023/07/17 02:34:57;;;;;;;;;;;;;;;17.39;76.64;101252.35;108314;1262;60702;-85
2023/07/17 02:37:24;;;;;;;;;;;;;;;17.42;76.74;101249.54;108317;1262;74001;-84
2023/07/17 02:39:51;;;;;;;;;;;;;;;17.45;76.78;101250.96;108412;1261;125842;-85
2023/07/17 02:42:18;;;;;;;;;;;;;;;17.47;76.80;101241.58;108285;1260;71307;-85
2023/07/17 02:44:45;;;;;;;;;;;;;;;17.48;76.58;101240.86;108457;1262;125285;-85
2023/07/17 02:47:12;;;;;;;;;;;;;;;17.46;76.58;101243.87;108455;1260;59099;-85
2023/07/17 02:49:39;;;;;;;;;;;;;;;17.45;76.64;101235.52;108496;1260;125497;-85
2023/07/17 02:52:06;;;;;;;;;;;;;;;17.45;76.61;101229.49;108533;1262;66015;-85
2023/07/17 02:54:34;;;;;;;;;;;;;;;17.46;76.76;101237.49;108411;1260;73262;-85
2023/07/17 02:57:00;;;;;;;;;;;;;;;17.46;76.73;101241.73;108350;1261;125333;-85
2023/07/17 02:59:27;;;;;;;;;;;;;;;17.46;76.71;101241.04;108576;1261;59431;-85
2023/07/17 03:01:55;;;;;;;;;;;;;;;17.47;76.92;101245.46;108374;1260;125515;-85
2023/07/17 03:04:22;;;;;;;;;;;;;;;17.49;76.95;101246.01;108272;1260;66532;-85
2023/07/17 03:06:48;;;;;;;;;;;;;;;17.54;77.05;101249.41;108366;1261;73915;-85
2023/07/17 03:09:16;;;;;;;;;;;;;;;17.61;77.15;101252.27;108396;1262;125553;-85
2023/07/17 03:11:43;;;;;;;;;;;;;;;17.72;77.28;101249.30;108345;1262;59608;-85
2023/07/17 03:14:10;;;;;;;;;;;;;;;17.87;77.40;101251.15;108375;1261;125650;-85
2023/07/17 03:16:36;;;;;;;;;;;;;;;18.04;77.26;101245.16;108588;1261;67126;-85
2023/07/17 03:19:03;;;;;;;;;;;;;;;18.21;77.28;101241.47;108613;1262;71643;-85
2023/07/17 03:21:30;;;;;;;;;;;;;;;18.39;77.15;101238.10;108470;1262;124879;-85
2023/07/17 03:23:57;;;;;;;;;;;;;;;18.52;76.90;101245.03;108610;1260;59938;-85
2023/07/17 03:26:24;;;;;;;;;;;;;;;18.63;76.77;101243.44;108473;1262;125092;-85
2023/07/17 03:28:51;;;;;;;;;;;;;;;18.76;76.68;101249.66;108630;1261;66364;-85
2023/07/17 03:31:18;;;;;;;;;;;;;;;18.86;76.40;101256.26;108586;1262;71797;-85
2023/07/17 03:33:45;;;;;;;;;;;;;;;18.87;76.01;101257.52;108459;1262;125298;-85
2023/07/17 03:36:12;;;;;;;;;;;;;;;18.86;75.79;101259.10;108554;1262;60087;-85
2023/07/17 03:38:40;;;;;;;;;;;;;;;18.88;75.76;101262.66;108450;1262;124614;-85
2023/07/17 03:41:07;;;;;;;;;;;;;;;18.91;75.71;101260.52;108421;1262;66585;-85
2023/07/17 03:43:34;;;;;;;;;;;;;;;18.95;75.62;101257.32;108406;1262;72208;-84
2023/07/17 03:46:01;;;;;;;;;;;;;;;19.03;75.75;101252.50;108517;1262;59516;-84
2023/07/17 03:48:28;;;;;;;;;;;;;;;19.12;75.65;101250.16;108390;1262;59323;-84
2023/07/17 03:50:55;;;;;;;;;;;;;;;19.20;75.64;101247.48;108238;1262;124981;-85
2023/07/17 03:53:22;;;;;;;;;;;;;;;19.26;75.43;101247.83;108300;1262;67099;-84
2023/07/17 03:55:49;;;;;;;;;;;;;;;19.28;75.32;101251.20;108369;1262;124516;-84
2023/07/17 03:58:16;;;;;;;;;;;;;;;19.28;75.27;101251.20;108298;1262;59475;-84
2023/07/17 04:00:44;;;;;;;;;;;;;;;19.30;75.19;101252.08;108463;1262;59436;-83
2023/07/17 04:03:11;;;;;;;;;;;;;;;19.30;75.17;101257.95;108331;1262;124488;-84
2023/07/17 04:05:38;;;;;;;;;;;;;;;19.32;75.12;101254.57;108443;1262;67310;-84
2023/07/17 04:08:05;;;;;;;;;;;;;;;19.33;75.05;101257.41;108355;1262;124895;-85
2023/07/17 04:10:32;;;;;;;;;;;;;;;19.61;76.28;101260.16;108349;1262;59094;-84
2023/07/17 04:12:59;;;;;;;;;;;;;;;21.06;78.80;101257.17;108632;1262;59329;-84
2023/07/17 04:15:27;;;;;;;;;;;;;;;22.94;77.94;101255.66;108484;1262;125515;-85
2023/07/17 04:17:53;;;;;;;;;;;;;;;24.71;75.43;101255.64;108429;1262;65787;-86
2023/07/17 04:20:20;;;;;;;;;;;;;;;26.26;72.63;101252.82;108493;1262;125129;-85
2023/07/17 04:22:48;;;;;;;;;;;;;;;27.67;70.14;101248.84;108574;1262;59197;-87
2023/07/17 04:25:15;;;;;;;;;;;;;;;28.86;67.79;101251.61;108409;1262;59345;-86
2023/07/17 04:27:42;;;;;;;;;;;;;;;30.08;65.74;101253.64;108540;1262;126122;-86
2023/07/17 04:30:09;;;;;;;;;;;;;;;31.31;63.40;101253.61;108638;1263;58996;-87
2023/07/17 04:32:36;;;;;;;;;;;;;;;32.56;61.22;101252.41;108532;1266;124724;-87
2023/07/17 04:35:06;;;;;;;;;;;;;;;33.56;58.81;101252.29;108658;1262;59112;-87
2023/07/17 04:37:33;;;;;;;;;;;;;;;34.39;56.78;101251.70;108740;1261;59027;-87
2023/07/17 04:40:00;;;;;;;;;;;;;;;35.18;55.05;101254.84;108449;1261;124915;-85
2023/07/17 04:42:28;;;;;;;;;;;;;;;35.99;52.83;101256.91;108640;1261;59240;-86
2023/07/17 04:44:55;;;;;;;;;;;;;;;36.60;51.21;101258.58;108299;1261;125218;-85
2023/07/17 04:47:22;;;;;;;;;;;;;;;37.19;49.65;101256.30;108372;1261;59193;-82
2023/07/17 04:49:52;;;;;;;;;;;;;;;37.78;48.13;101258.91;108279;1262;126685;-84
2023/07/17 04:52:19;;;;;;;;;;;;;;;38.28;46.51;101259.54;108525;1261;65069;-84
2023/07/17 04:54:46;;;;;;;;;;;;;;;38.74;45.11;101254.59;108461;1260;59388;-85
2023/07/17 04:57:13;;;;;;;;;;;;;;;39.23;44.10;101251.96;108521;1260;124950;-85
2023/07/17 04:59:40;;;;;;;;;;;;;;;39.71;42.90;101249.04;108513;1261;59108;-85
2023/07/17 05:02:07;;;;;;;;;;;;;;;40.12;41.77;101244.22;108483;1262;125156;-82
2023/07/17 05:04:34;;;;;;;;;;;;;;;40.50;40.92;101241.39;108489;1261;66141;-82
2023/07/17 05:07:01;;;;;;;;;;;;;;;40.93;39.92;101238.77;108485;1260;59079;-85
2023/07/17 05:09:28;;;;;;;;;;;;;;;41.37;38.92;101230.36;108545;1262;124799;-83
2023/07/17 05:11:55;;;;;;;;;;;;;;;41.64;38.27;101227.66;108621;1261;59182;-83
2023/07/17 05:14:22;;;;;;;;;;;;;;;42.04;37.52;101226.57;108384;1261;124452;-83
2023/07/17 05:16:49;;;;;;;;;;;;;;;42.43;36.75;101223.91;108666;1262;66189;-84
2023/07/17 05:19:16;;;;;;;;;;;;;;;42.70;35.79;101223.23;108703;1262;59306;-85
2023/07/17 05:21:43;;;;;;;;;;;;;;;42.86;35.20;101225.98;108572;1264;124703;-84
2023/07/17 05:24:12;;;;;;;;;;;;;;;43.19;34.76;101220.83;108668;1262;59339;-85
2023/07/17 05:26:39;;;;;;;;;;;;;;;43.51;34.05;101218.52;108375;1260;124632;-85
2023/07/17 05:29:06;;;;;;;;;;;;;;;43.78;33.29;101219.51;108644;1261;64640;-86
2023/07/17 05:31:35;;;;;;;;;;;;;;;43.88;32.40;101221.84;108584;1261;59270;-87
2023/07/17 05:34:03;;;;;;;;;;;;;;;43.77;31.80;101217.44;108546;1262;124106;-87
2023/07/17 05:36:30;;;;;;;;;;;;;;;43.82;31.76;101216.10;108424;1262;59123;-85
2023/07/17 05:38:57;;;;;;;;;;;;;;;44.22;31.33;101210.59;108383;1261;124955;-87
2023/07/17 05:41:24;;;;;;;;;;;;;;;44.33;30.90;101210.67;108684;1260;65810;-87
2023/07/17 05:43:51;;;;;;;;;;;;;;;44.27;30.53;101207.61;108454;1262;124835;-85
2023/07/17 05:46:18;;;;;;;;;;;;;;;43.06;29.62;101207.02;108614;1260;73180;-84
2023/07/17 05:48:45;;;;;;;;;;;;;;;41.05;30.23;101204.36;108595;1262;59114;-85
2023/07/17 05:51:11;;;;;;;;;;;;;;;38.97;31.35;101201.84;108512;1260;124550;-85
2023/07/17 05:53:39;;;;;;;;;;;;;;;37.11;32.64;101196.15;108628;1264;64779;-85
2023/07/17 05:56:06;;;;;;;;;;;;;;;35.59;33.56;101193.67;108386;1262;125015;-85
2023/07/17 05:58:33;;;;;;;;;;;;;;;34.24;34.84;101190.39;108585;1262;64079;-85
2023/07/17 06:01:00;;;;;;;;;;;;;;;33.17;36.17;101186.36;108565;1261;59487;-84
2023/07/17 06:03:27;;;;;;;;;;;;;;;32.41;37.40;101185.16;108514;1261;124691;-85
2023/07/17 06:05:54;;;;;;;;;;;;;;;31.74;38.35;101183.77;108435;1260;64694;-85
2023/07/17 06:08:21;;;;;;;;;;;;;;;31.07;39.11;101180.39;108523;1262;124728;-85
2023/07/17 06:10:48;;;;;;;;;;;;;;;30.45;40.00;101180.71;108637;1261;62840;-86
2023/07/17 06:13:16;;;;;;;;;;;;;;;29.94;40.96;101174.02;108463;1262;59088;-87
2023/07/17 06:15:43;;;;;;;;;;;;;;;29.57;41.81;101172.33;108606;1261;124879;-87
2023/07/17 06:18:10;;;;;;;;;;;;;;;29.36;42.59;101171.70;108681;1262;66078;-86
2023/07/17 06:20:37;;;;;;;;;;;;;;;29.14;43.30;101171.64;108592;1261;124480;-87
2023/07/17 06:23:04;;;;;;;;;;;;;;;28.87;43.71;101170.67;108670;1261;63386;-87
2023/07/17 06:25:31;;;;;;;;;;;;;;;28.61;44.27;101167.30;108597;1262;59179;-87
2023/07/17 06:27:58;;;;;;;;;;;;;;;28.53;44.91;101165.30;108483;1262;124226;-87
2023/07/17 06:30:25;;;;;;;;;;;;;;;28.46;45.38;101164.86;108634;1261;73576;-85
2023/07/17 06:32:52;;;;;;;;;;;;;;;28.37;45.91;101166.50;108501;1261;124466;-85
2023/07/17 06:35:18;;;;;;;;;;;;;;;28.29;46.26;101170.47;108608;1262;70216;-86
2023/07/17 06:37:45;;;;;;;;;;;;;;;28.21;46.72;101171.49;108575;1261;124423;-85
2023/07/17 06:40:13;;;;;;;;;;;;;;;28.10;47.03;101171.23;108644;1262;59265;-85
2023/07/17 06:42:40;;;;;;;;;;;;;;;27.96;47.32;101169.44;108585;1262;74534;-86
2023/07/17 06:45:07;;;;;;;;;;;;;;;27.82;47.82;101171.43;108528;1262;124597;-85
2023/07/17 06:47:36;;;;;;;;;;;;;;;27.64;47.79;101176.14;108537;1262;72546;-85
2023/07/17 06:50:04;;;;;;;;;;;;;;;27.34;48.21;101178.54;108500;1263;125419;-85
2023/07/17 06:52:31;;;;;;;;;;;;;;;27.11;48.64;101172.91;108450;1264;59305;-85
2023/07/17 06:54:58;;;;;;;;;;;;;;;26.98;49.38;101166.37;108569;1263;74626;-85
2023/07/17 06:57:25;;;;;;;;;;;;;;;26.88;49.91;101165.27;108313;1262;125619;-85
2023/07/17 06:59:52;;;;;;;;;;;;;;;26.76;50.30;101163.73;108447;1262;72509;-85
2023/07/17 07:02:19;;;;;;;;;;;;;;;26.64;50.77;101162.92;108503;1264;125409;-84
2023/07/17 07:04:46;;;;;;;;;;;;;;;26.54;51.34;101164.48;108537;1264;59051;-85
2023/07/17 07:07:13;;;;;;;;;;;;;;;26.51;51.63;101167.30;108626;1264;74507;-85
2023/07/17 07:09:40;;;;;;;;;;;;;;;26.48;51.80;101164.85;108453;1262;124323;-85
2023/07/17 07:12:07;;;;;;;;;;;;;;;26.42;52.14;101160.91;108531;1263;72713;-84
2023/07/17 07:14:34;;;;;;;;;;;;;;;26.36;52.55;101157.38;108490;1262;124336;-85
2023/07/17 07:17:01;;;;;;;;;;;;;;;26.32;52.80;101154.80;108636;1261;59105;-85
2023/07/17 07:19:28;;;;;;;;;;;;;;;26.29;52.91;101151.48;108587;1262;72259;-85
2023/07/17 07:21:55;;;;;;;;;;;;;;;26.27;53.14;101152.29;108468;1262;124499;-85
2023/07/17 07:24:22;;;;;;;;;;;;;;;26.25;53.17;101148.39;108640;1262;72243;-85
2023/07/17 07:26:49;;;;;;;;;;;;;;;26.20;53.03;101146.56;108353;1262;124490;-85
2023/07/17 07:29:16;;;;;;;;;;;;;;;26.15;53.28;101144.41;108638;1262;60183;-85
2023/07/17 07:31:43;;;;;;;;;;;;;;;26.15;53.85;101144.57;108527;1264;124584;-86
2023/07/17 07:34:13;;;;;;;;;;;;;;;26.18;53.89;101140.50;108640;1267;67984;-87
2023/07/17 07:36:41;;;;;;;;;;;;;;;26.19;53.77;101137.58;108493;1264;72615;-84
2023/07/17 07:39:08;;;;;;;;;;;;;;;26.19;53.44;101140.46;108378;1262;124904;-85
2023/07/17 07:41:35;;;;;;;;;;;;;;;26.18;53.22;101137.45;108583;1264;59274;-85
2023/07/17 07:44:02;;;;;;;;;;;;;;;26.19;52.87;101135.63;108422;1262;124550;-85
2023/07/17 07:46:29;;;;;;;;;;;;;;;26.22;52.78;101133.38;108616;1262;66053;-85
2023/07/17 07:48:56;;;;;;;;;;;;;;;26.25;52.48;101130.92;108479;1262;72730;-85
2023/07/17 07:51:23;;;;;;;;;;;;;;;26.28;52.60;101130.11;108371;1267;124780;-85
2023/07/17 07:53:50;;;;;;;;;;;;;;;26.33;52.84;101129.58;108580;1262;59301;-85
2023/07/17 07:56:17;;;;;;;;;;;;;;;26.35;52.21;101131.84;108504;1264;124773;-85
2023/07/17 07:58:44;;;;;;;;;;;;;;;26.38;51.57;101131.40;108585;1262;66958;-85
2023/07/17 08:01:11;;;;;;;;;;;;;;;26.37;51.12;101125.11;108491;1262;72714;-85
2023/07/17 08:03:40;;;;;;;;;;;;;;;26.41;51.10;101119.60;108466;1261;125176;-85
2023/07/17 08:06:07;;;;;;;;;;;;;;;26.44;50.84;101122.56;108562;1262;59151;-85
2023/07/17 08:08:34;;;;;;;;;;;;;;;26.46;50.60;101120.30;108485;1263;124634;-85
2023/07/17 08:11:01;;;;;;;;;;;;;;;26.51;50.65;101118.52;108444;1269;66334;-85
2023/07/17 08:13:28;;;;;;;;;;;;;;;26.52;49.57;101120.08;108483;1262;71166;-85
2023/07/17 08:15:56;;;;;;;;;;;;;;;26.50;49.12;101116.02;108311;1264;124413;-85
2023/07/17 08:18:23;;;;;;;;;;;;;;;26.51;48.75;101114.90;108604;1262;59128;-85
2023/07/17 08:20:50;;;;;;;;;;;;;;;26.54;48.58;101114.42;108469;1262;124415;-85
2023/07/17 08:23:27;;;;;;;;;;;;;;;26.60;48.84;101116.58;108462;1263;64690;-85
2023/07/17 08:25:54;;;;;;;;;;;;;;;26.67;48.50;101113.28;108317;1267;124914;-85
2023/07/17 08:28:20;;;;;;;;;;;;;;;26.73;48.03;101114.67;108350;1262;59289;-85
2023/07/17 08:30:50;;;;;;;;;;;;;;;26.76;47.42;101117.10;108524;1262;59257;-85
2023/07/17 08:33:17;;;;;;;;;;;;;;;26.76;46.76;101115.48;108358;1264;124586;-85
2023/07/17 08:35:44;;;;;;;;;;;;;;;26.76;46.26;101116.19;108565;1266;67095;-85
2023/07/17 08:38:11;;;;;;;;;;;;;;;26.79;46.15;101112.70;108419;1262;124461;-85
2023/07/17 08:40:39;;;;;;;;;;;;;;;26.85;46.24;101111.55;108386;1267;59575;-85
2023/07/17 08:43:06;;;;;;;;;;;;;;;26.93;46.37;101107.83;108441;1267;60707;-85
2023/07/17 08:45:33;;;;;;;;;;;;;;;27.02;45.86;101104.25;108338;1262;124591;-85
2023/07/17 08:48:00;;;;;;;;;;;;;;;27.09;45.26;101109.40;108426;1262;67159;-85
2023/07/17 08:50:28;;;;;;;;;;;;;;;27.15;44.93;101104.12;108141;1263;124344;-85
2023/07/17 08:52:55;;;;;;;;;;;;;;;27.22;44.86;101104.38;108603;1266;59241;-86
2023/07/17 08:55:22;;;;;;;;;;;;;;;27.28;44.70;101103.26;108510;1264;59532;-86
2023/07/17 08:57:50;;;;;;;;;;;;;;;27.35;44.34;101103.72;108385;1267;124258;-86
2023/07/17 09:00:18;;;;;;;;;;;;;;;27.42;44.12;101104.71;108377;1262;65728;-87
2023/07/17 09:02:45;;;;;;;;;;;;;;;27.47;43.75;101104.18;108547;1262;124290;-87
2023/07/17 09:05:12;;;;;;;;;;;;;;;27.51;43.43;101100.38;108592;1266;59433;-87
2023/07/17 09:07:39;;;;;;;;;;;;;;;27.56;43.13;101104.89;108542;1262;123910;-88
2023/07/17 09:10:19;;;;;;;;;;;;;;;27.61;42.60;101099.09;108531;1263;74716;-86
2023/07/17 09:12:49;;;;;;;;;;;;;;;27.68;42.04;101097.20;108668;1264;65231;-86
2023/07/17 09:15:16;;;;;;;;;;;;;;;27.74;41.53;101096.04;108456;1264;124880;-87
2023/07/17 09:17:44;;;;;;;;;;;;;;;27.85;41.46;101101.19;108469;1264;59125;-87
2023/07/17 09:20:11;;;;;;;;;;;;;;;28.00;41.20;101101.83;108406;1264;124585;-87
2023/07/17 09:22:38;;;;;;;;;;;;;;;28.17;40.61;101097.53;108556;1262;74509;-87
2023/07/17 09:25:05;;;;;;;;;;;;;;;28.32;40.21;101093.41;108594;1264;66975;-87
2023/07/17 09:27:45;;;;;;;;;;;;;;;28.51;40.31;101093.35;108441;1264;124337;-87
2023/07/17 09:30:13;;;;;;;;;;;;;;;28.70;40.18;101092.87;108598;1262;59081;-87
2023/07/17 09:32:40;;;;;;;;;;;;;;;28.90;39.69;101085.61;108435;1268;124291;-87
2023/07/17 09:35:07;;;;;;;;;;;;;;;29.11;39.54;101084.11;108488;1269;64834;-87
2023/07/17 09:37:35;;;;;;;;;;;;;;;29.33;38.80;101092.12;108574;1262;59096;-87
2023/07/17 09:40:07;;;;;;;;;;;;;;;29.52;37.93;101093.60;108423;1264;124463;-87
2023/07/17 09:42:34;;;;;;;;;;;;;;;29.63;37.22;101090.15;108562;1264;58947;-86
2023/07/17 09:45:01;;;;;;;;;;;;;;;29.75;36.94;101089.95;108527;1264;124264;-87
2023/07/17 09:47:28;;;;;;;;;;;;;;;29.87;36.71;101083.37;108587;1262;64617;-87
2023/07/17 09:49:55;;;;;;;;;;;;;;;29.91;36.16;101086.96;108432;1262;124483;-86
2023/07/17 09:52:22;;;;;;;;;;;;;;;29.96;35.98;101085.82;108558;1264;72678;-86
2023/07/17 09:54:51;;;;;;;;;;;;;;;30.02;35.79;101079.70;108604;1264;59087;-86
2023/07/17 09:57:23;;;;;;;;;;;;;;;30.03;35.62;101079.63;108392;1264;124256;-86
2023/07/17 09:59:50;;;;;;;;;;;;;;;30.01;35.51;101074.31;108498;1264;65059;-86
2023/07/17 10:02:18;;;;;;;;;;;;;;;30.00;35.64;101070.95;108494;1262;124533;-86
2023/07/17 10:04:46;;;;;;;;;;;;;;;30.00;35.50;101069.33;108443;1263;63837;-86
2023/07/17 10:07:13;;;;;;;;;;;;;;;29.94;35.04;101067.29;108516;1264;59481;-86
2023/07/17 10:09:40;;;;;;;;;;;;;;;29.81;34.24;101073.00;108268;1268;124868;-86
2023/07/17 10:12:07;;;;;;;;;;;;;;;29.66;33.94;101072.96;108541;1264;64686;-86
2023/07/17 10:14:34;;;;;;;;;;;;;;;29.54;33.85;101072.30;108360;1267;124955;-85
2023/07/17 10:17:01;;;;;;;;;;;;;;;29.47;33.47;101073.38;108513;1264;72483;-86
2023/07/17 10:19:44;;;;;;;;;;;;;;;29.45;33.45;101075.10;108585;1263;59406;-86
2023/07/17 10:22:14;;;;;;;;;;;;;;;29.48;33.46;101070.64;108529;1262;59017;-86
2023/07/17 10:24:41;;;;;;;;;;;;;;;29.56;33.21;101069.16;108548;1264;66145;-86
2023/07/17 10:27:08;;;;;;;;;;;;;;;29.68;33.03;101067.80;108509;1264;124365;-86
2023/07/17 10:29:41;;;;;;;;;;;;;;;29.89;32.78;101068.08;108678;1263;63926;-86
2023/07/17 10:32:09;;;;;;;;;;;;;;;30.09;32.29;101064.17;108309;1262;124410;-87
2023/07/17 10:34:52;;;;;;;;;;;;;;;30.25;32.01;101062.98;108537;1264;59121;-87
2023/07/17 10:37:31;;;;;;;;;;;;;;;30.48;31.95;101066.67;108564;1263;64800;-87
2023/07/17 10:40:05;;;;;;;;;;;;;;;30.70;31.83;101068.95;108613;1266;124439;-87
2023/07/17 10:42:32;;;;;;;;;;;;;;;30.83;31.35;101066.41;108580;1264;64116;-87
2023/07/17 10:45:12;;;;;;;;;;;;;;;30.91;30.83;101064.19;108399;1262;124473;-87
2023/07/17 10:47:39;;;;;;;;;;;;;;;30.92;30.56;101062.87;108555;1262;59088;-87
2023/07/17 10:50:06;;;;;;;;;;;;;;;31.02;30.61;101059.94;108327;1263;279958;-87
2023/07/17 10:52:36;;;;;;;;;;;;;;;31.20;30.40;101057.86;108670;1264;59335;-87
2023/07/17 10:55:04;;;;;;;;;;;;;;;31.37;30.07;101053.30;108525;1264;63956;-87
2023/07/17 10:57:32;;;;;;;;;;;;;;;31.48;29.81;101049.95;108519;1264;125196;-88
2023/07/17 10:59:59;;;;;;;;;;;;;;;31.61;29.75;101045.38;108612;1264;59053;-88
2023/07/17 11:02:26;;;;;;;;;;;;;;;31.73;29.77;101054.66;108449;1262;124362;-88
2023/07/17 11:04:54;;;;;;;;;;;;;;;31.79;29.74;101053.95;108521;1264;59153;-87
2023/07/17 11:07:21;;;;;;;;;;;;;;;32.01;29.53;101044.30;108642;1262;62921;-88
2023/07/17 11:09:48;;;;;;;;;;;;;;;32.19;29.33;101043.58;108554;1264;124210;-87
2023/07/17 11:12:18;;;;;;;;;;;;;;;32.23;29.31;101040.27;108590;1263;59127;-86
2023/07/17 11:14:45;;;;;;;;;;;;;;;32.21;29.63;101036.19;108375;1264;124431;-85
2023/07/17 11:17:12;;;;;;;;;;;;;;;32.21;29.41;101035.46;108428;1264;59237;-86
2023/07/17 11:19:39;;;;;;;;;;;;;;;32.20;29.35;101027.55;108564;1264;63962;-86
2023/07/17 11:22:09;;;;;;;;;;;;;;;32.18;29.08;101025.15;108538;1261;124930;-86
2023/07/17 11:24:37;;;;;;;;;;;;;;;32.04;29.07;101019.60;108664;1263;58993;-85
2023/07/17 11:27:05;;;;;;;;;;;;;;;31.82;29.07;101024.02;108391;1264;125430;-87
2023/07/17 11:29:36;;;;;;;;;;;;;;;31.59;28.84;101027.55;108504;1264;59136;-87
2023/07/17 11:32:06;;;;;;;;;;;;;;;31.32;28.57;101022.53;108473;1264;124523;-87
2023/07/17 11:34:35;;;;;;;;;;;;;;;31.13;28.73;101024.52;108579;1262;59415;-86
2023/07/17 11:37:03;;;;;;;;;;;;;;;31.02;28.78;101023.55;108516;1262;59063;-87
2023/07/17 11:39:32;;;;;;;;;;;;;;;30.94;28.83;101023.62;108393;1263;124845;-87
2023/07/17 11:41:59;;;;;;;;;;;;;;;30.94;29.05;101024.37;108656;1264;59142;-88
2023/07/17 11:44:29;;;;;;;;;;;;;;;30.98;29.15;101022.12;108545;1264;124564;-87
2023/07/17 11:47:01;;;;;;;;;;;;;;;31.09;29.22;101025.48;108579;1264;59095;-88
2023/07/17 11:49:28;;;;;;;;;;;;;;;31.18;29.11;101017.72;108629;1263;58998;-87
2023/07/17 11:51:55;;;;;;;;;;;;;;;31.23;29.10;101019.97;108416;1263;124615;-88
2023/07/17 11:54:37;;;;;;;;;;;;;;;31.18;28.78;101017.37;108551;1262;59161;-87
2023/07/17 11:57:05;;;;;;;;;;;;;;;31.07;28.60;101021.77;108522;1264;124431;-87
2023/07/17 11:59:32;;;;;;;;;;;;;;;30.96;28.71;101019.52;108501;1262;59112;-87
2023/07/17 12:01:59;;;;;;;;;;;;;;;30.95;28.97;101020.64;108537;1264;124412;-87
2023/07/17 12:04:26;;;;;;;;;;;;;;;31.10;29.13;101014.04;108659;1262;64433;-87
2023/07/17 12:06:53;;;;;;;;;;;;;;;31.25;29.11;101017.89;108620;1262;59076;-86
2023/07/17 12:09:21;;;;;;;;;;;;;;;31.27;28.60;101019.73;108399;1262;124500;-88
2023/07/17 12:11:49;;;;;;;;;;;;;;;31.22;28.57;101017.86;108564;1264;59106;-87
2023/07/17 12:14:17;;;;;;;;;;;;;;;31.16;28.47;101023.11;108522;1263;124733;-87
2023/07/17 12:16:44;;;;;;;;;;;;;;;31.09;28.51;101027.86;108665;1262;66151;-87
2023/07/17 12:19:12;;;;;;;;;;;;;;;31.02;28.42;101034.02;108534;1267;59253;-87
2023/07/17 12:21:39;;;;;;;;;;;;;;;30.93;28.31;101043.77;108517;1262;123240;-84
2023/07/17 12:24:06;;;;;;;;;;;;;;;30.62;29.75;101057.60;108400;1262;59193;-85